Rumley, Texas
Current Conditions -  °F | °C
As of 2:35 AM on Friday 31 Oct 2014 (Local Time) from KLZZ Reporting Station
Broken Clouds Broken Clouds  
Wind Chill: 17°   Ceiling: 8000
Heat Index: 17°   Visibility: 10mi
Dew Point: 16°   Wind: 5mph
Humidity: 93%   Direction: 340°NNW
Pressure: 30.18"   Gusts: NA
Location:  31.0791°N, 98.0007°W
Report Text: KLZZ 310735Z AUTO 34004KT 10SM SCT040 BKN080 BKN100 17/16 A3018 RMK AO2 LTG DSNT SW T01720161
Loading
Personal Weather Stations






























Interactive Weather Map
Tropical Storm Tracking
New forecast layout! Learn more

10-Day Weather Forecast

Advertisements
Track Severe Weather on mobile